createdAt,value
2019-01-04T00:00:21.880Z,59.40
2019-01-04T00:02:50.891Z,59.40
2019-01-04T00:05:19.900Z,59.20
2019-01-04T00:07:48.838Z,59.70
2019-01-04T00:10:17.844Z,59.10
2019-01-04T00:12:46.692Z,59.00
2019-01-04T00:15:15.568Z,59.00
2019-01-04T00:17:44.518Z,58.80
2019-01-04T00:20:13.426Z,58.70
2019-01-04T00:22:42.268Z,58.70
2019-01-04T00:25:11.233Z,58.60
2019-01-04T00:27:40.150Z,58.70
2019-01-04T00:30:10.882Z,58.80
2019-01-04T00:32:39.841Z,59.20
2019-01-04T00:35:08.813Z,59.00
2019-01-04T00:37:43.025Z,59.20
2019-01-04T00:40:11.844Z,59.50
2019-01-04T00:42:40.750Z,59.60
2019-01-04T00:45:09.832Z,59.90
2019-01-04T00:47:38.974Z,60.10
2019-01-04T00:50:08.625Z,60.20
2019-01-04T00:52:37.601Z,60.40
2019-01-04T00:55:23.353Z,60.50
2019-01-04T00:58:03.377Z,60.70
2019-01-04T01:01:15.749Z,60.70
2019-01-04T01:04:25.213Z,60.90
2019-01-04T01:07:24.018Z,61.00
2019-01-04T01:10:42.523Z,61.00
2019-01-04T01:13:55.865Z,61.00
2019-01-04T01:17:08.805Z,61.10
2019-01-04T01:20:21.989Z,61.10
2019-01-04T01:23:27.050Z,61.10
2019-01-04T01:26:36.305Z,61.20
2019-01-04T01:29:42.220Z,61.00
2019-01-04T01:32:57.481Z,61.10
2019-01-04T01:36:10.644Z,61.10
2019-01-04T01:39:46.466Z,61.10
2019-01-04T01:42:54.421Z,61.20
2019-01-04T01:46:26.100Z,61.20
2019-01-04T01:49:10.541Z,61.20
2019-01-04T01:52:01.724Z,61.20
2019-01-04T01:54:30.647Z,61.40
2019-01-04T01:56:59.465Z,61.50
2019-01-04T01:59:28.308Z,61.60
2019-01-04T02:01:57.261Z,61.70
2019-01-04T02:04:26.107Z,61.80
2019-01-04T02:06:54.968Z,61.90
2019-01-04T02:09:23.979Z,62.00
2019-01-04T02:11:52.883Z,62.00
2019-01-04T02:14:21.753Z,62.10
2019-01-04T02:16:50.972Z,62.10
2019-01-04T02:19:19.974Z,62.10
2019-01-04T02:21:48.808Z,62.20
2019-01-04T02:24:18.489Z,62.30
2019-01-04T02:26:49.950Z,62.30
2019-01-04T02:29:18.770Z,62.40
2019-01-04T02:31:48.067Z,62.40
2019-01-04T02:34:17.032Z,62.50
2019-01-04T02:36:45.921Z,62.60
2019-01-04T02:39:14.842Z,62.60
2019-01-04T02:41:43.760Z,62.70
2019-01-04T02:44:12.670Z,62.80
2019-01-04T02:46:41.640Z,62.80
2019-01-04T02:49:10.499Z,62.70
2019-01-04T02:51:39.317Z,62.80
2019-01-04T02:54:08.229Z,62.80
2019-01-04T02:56:37.241Z,62.70
2019-01-04T02:59:06.138Z,62.80
2019-01-04T03:01:35.045Z,62.80
2019-01-04T03:04:04.031Z,63.00
2019-01-04T03:06:32.909Z,63.00
2019-01-04T03:09:01.874Z,63.10
2019-01-04T03:11:30.919Z,63.20
2019-01-04T03:13:59.827Z,63.20
2019-01-04T03:16:28.917Z,63.20
2019-01-04T03:18:57.736Z,63.40
2019-01-04T03:21:26.561Z,63.50
2019-01-04T03:23:55.429Z,63.60
2019-01-04T03:26:24.600Z,63.60
2019-01-04T03:28:53.471Z,63.70
2019-01-04T03:31:22.558Z,63.90
2019-01-04T03:33:51.539Z,64.10
2019-01-04T03:36:20.521Z,64.00
2019-01-04T03:38:49.375Z,64.00
2019-01-04T03:41:20.374Z,64.00
2019-01-04T03:43:49.185Z,64.20
2019-01-04T03:46:18.368Z,64.20
2019-01-04T03:48:47.267Z,64.20
2019-01-04T03:51:16.242Z,64.30
2019-01-04T03:53:45.250Z,64.30
2019-01-04T03:56:16.653Z,64.30
2019-01-04T03:58:45.469Z,64.30
2019-01-04T04:01:14.520Z,64.30
2019-01-04T04:03:43.345Z,64.20
2019-01-04T04:06:12.524Z,64.10
2019-01-04T04:08:41.466Z,64.10
2019-01-04T04:11:10.326Z,64.00
2019-01-04T04:13:39.144Z,64.00
2019-01-04T04:16:08.266Z,63.90
2019-01-04T04:18:37.138Z,64.00
2019-01-04T04:21:05.956Z,63.90
2019-01-04T04:23:34.810Z,63.90
2019-01-04T04:26:03.832Z,63.90
2019-01-04T04:28:32.630Z,63.90
2019-01-04T04:31:01.559Z,63.90
2019-01-04T04:33:30.410Z,63.90
2019-01-04T04:35:59.401Z,63.80
2019-01-04T04:38:28.245Z,63.80
2019-01-04T04:40:57.058Z,63.60
2019-01-04T04:43:25.973Z,63.50
2019-01-04T04:46:00.039Z,63.40
2019-01-04T04:48:28.873Z,63.40
2019-01-04T04:50:57.741Z,63.20
2019-01-04T04:53:26.604Z,63.00
2019-01-04T04:55:55.651Z,62.80
2019-01-04T04:58:24.507Z,62.90
2019-01-04T05:00:53.341Z,62.70
2019-01-04T05:03:22.157Z,62.60
2019-01-04T05:05:51.014Z,62.60
2019-01-04T05:08:19.890Z,62.50
2019-01-04T05:10:48.725Z,62.60
2019-01-04T05:13:17.637Z,62.60
2019-01-04T05:15:46.576Z,62.60
2019-01-04T05:18:17.745Z,62.70
2019-01-04T05:20:46.561Z,62.70
2019-01-04T05:23:15.497Z,62.70
2019-01-04T05:25:44.326Z,62.80
2019-01-04T05:28:13.135Z,62.80
2019-01-04T05:30:41.986Z,62.70
2019-01-04T05:33:10.825Z,62.80
2019-01-04T05:35:39.757Z,62.80
2019-01-04T05:38:08.690Z,62.80
2019-01-04T05:40:37.554Z,62.80
2019-01-04T05:43:06.466Z,62.80
2019-01-04T05:45:35.325Z,62.70
2019-01-04T05:48:04.153Z,62.80
2019-01-04T05:50:32.975Z,62.60
2019-01-04T05:53:01.822Z,62.70
2019-01-04T05:55:30.666Z,62.70
2019-01-04T05:57:59.547Z,62.70
2019-01-04T06:00:28.486Z,62.60
2019-01-04T06:02:57.415Z,62.60
2019-01-04T06:05:26.333Z,62.70
2019-01-04T06:07:55.201Z,62.80
2019-01-04T06:10:24.104Z,62.60
2019-01-04T06:12:52.962Z,62.70
2019-01-04T06:15:21.809Z,62.70
2019-01-04T06:17:50.644Z,62.70
2019-01-04T06:20:19.838Z,62.60
2019-01-04T06:22:48.734Z,62.80
2019-01-04T06:25:17.633Z,62.70
2019-01-04T06:27:46.497Z,62.70
2019-01-04T06:30:15.473Z,62.70
2019-01-04T06:32:44.380Z,62.70
2019-01-04T06:35:13.329Z,62.70
2019-01-04T06:37:44.478Z,62.60
2019-01-04T06:40:13.521Z,62.60
2019-01-04T06:42:42.401Z,62.60
2019-01-04T06:45:11.446Z,62.50
2019-01-04T06:47:41.123Z,62.50
2019-01-04T06:50:10.067Z,62.50
2019-01-04T06:52:40.429Z,62.50
2019-01-04T06:55:55.976Z,62.60
2019-01-04T06:58:24.948Z,62.50
2019-01-04T07:00:54.032Z,62.30
2019-01-04T07:03:23.013Z,62.30
2019-01-04T07:05:52.695Z,62.20
2019-01-04T07:08:21.552Z,62.10
2019-01-04T07:10:50.394Z,62.20
2019-01-04T07:13:19.321Z,62.20
2019-01-04T07:15:49.116Z,62.20
2019-01-04T07:18:18.046Z,62.20
2019-01-04T07:20:46.981Z,62.30
2019-01-04T07:23:15.937Z,62.30
2019-01-04T07:25:44.790Z,62.20
2019-01-04T07:28:13.816Z,62.30
2019-01-04T07:30:44.491Z,62.20
2019-01-04T07:33:13.513Z,62.20
2019-01-04T07:35:42.521Z,62.20
2019-01-04T07:38:11.391Z,62.10
2019-01-04T07:40:40.318Z,62.10
2019-01-04T07:43:09.201Z,62.10
2019-01-04T07:45:57.313Z,62.10
2019-01-04T07:48:26.317Z,62.10
2019-01-04T07:50:55.281Z,62.20
2019-01-04T07:53:24.196Z,62.20
2019-01-04T07:55:53.317Z,62.10
2019-01-04T07:58:22.176Z,62.10
2019-01-04T08:00:51.078Z,62.10
2019-01-04T08:03:21.986Z,62.10
2019-01-04T08:06:02.318Z,62.10
2019-01-04T08:08:31.221Z,62.00
2019-01-04T08:11:00.174Z,62.00
2019-01-04T08:13:29.135Z,62.00
2019-01-04T08:15:58.066Z,61.90
2019-01-04T08:18:26.946Z,62.00
2019-01-04T08:20:55.789Z,62.00
2019-01-04T08:23:24.751Z,62.10
2019-01-04T08:25:53.642Z,62.20
2019-01-04T08:28:22.514Z,62.30
2019-01-04T08:30:51.452Z,62.30
2019-01-04T08:33:20.423Z,62.20
2019-01-04T08:35:49.442Z,62.10
2019-01-04T08:38:18.485Z,62.10
2019-01-04T08:40:47.490Z,62.10
2019-01-04T08:43:16.571Z,62.20
2019-01-04T08:45:45.425Z,62.30
2019-01-04T08:48:14.348Z,62.30
2019-01-04T08:50:43.274Z,62.30
2019-01-04T08:53:12.141Z,62.10
2019-01-04T08:55:40.997Z,62.20
2019-01-04T08:58:09.825Z,62.00
2019-01-04T09:00:38.694Z,62.00
2019-01-04T09:03:07.522Z,62.00
2019-01-04T09:05:36.465Z,62.00
2019-01-04T09:08:05.309Z,61.80
2019-01-04T09:10:34.144Z,61.90
2019-01-04T09:13:03.073Z,61.90
2019-01-04T09:15:31.938Z,61.90
2019-01-04T09:18:00.772Z,62.00
2019-01-04T09:20:29.657Z,61.80
2019-01-04T09:22:58.509Z,62.00
2019-01-04T09:25:27.436Z,61.90
2019-01-04T09:27:56.314Z,61.90
2019-01-04T09:30:25.180Z,61.90
2019-01-04T09:32:54.018Z,61.80
2019-01-04T09:35:22.854Z,61.60
2019-01-04T09:37:51.770Z,61.60
2019-01-04T09:40:22.078Z,61.50
2019-01-04T09:42:50.894Z,61.60
2019-01-04T09:45:19.811Z,61.60
2019-01-04T09:47:48.829Z,61.70
2019-01-04T09:50:17.654Z,61.80
2019-01-04T09:52:46.532Z,61.80
2019-01-04T09:55:15.489Z,61.80
2019-01-04T09:57:44.314Z,61.70
2019-01-04T10:00:14.009Z,61.70
2019-01-04T10:02:42.835Z,61.70
2019-01-04T10:05:12.095Z,61.80
2019-01-04T10:07:41.072Z,61.90
2019-01-04T10:10:11.555Z,61.80
2019-01-04T10:12:40.449Z,61.80
2019-01-04T10:15:12.398Z,61.70
2019-01-04T10:17:41.536Z,61.80
2019-01-04T10:20:10.638Z,61.70
2019-01-04T10:22:39.562Z,61.70
2019-01-04T10:25:08.561Z,61.70
2019-01-04T10:27:37.439Z,61.70
2019-01-04T10:30:06.688Z,61.60
2019-01-04T10:32:35.604Z,61.30
2019-01-04T10:35:10.271Z,61.30
2019-01-04T10:37:35.286Z,61.20
2019-01-04T10:40:04.387Z,61.10
2019-01-04T10:42:33.276Z,61.20
2019-01-04T10:45:02.138Z,61.30
2019-01-04T10:47:36.241Z,61.40
2019-01-04T10:50:05.552Z,61.40
2019-01-04T10:52:34.480Z,61.50
2019-01-04T10:55:03.500Z,61.50
2019-01-04T10:57:32.433Z,61.70
2019-01-04T11:00:01.301Z,61.80
2019-01-04T11:02:30.117Z,61.80
2019-01-04T11:04:59.018Z,61.80
2019-01-04T11:07:29.202Z,61.70
2019-01-04T11:09:58.109Z,62.00
2019-01-04T11:12:26.967Z,62.00
2019-01-04T11:14:55.945Z,62.00
2019-01-04T11:17:29.990Z,62.00
2019-01-04T11:19:58.878Z,62.00
2019-01-04T11:22:59.634Z,61.90
2019-01-04T11:25:55.291Z,62.00
2019-01-04T11:28:38.797Z,62.00
2019-01-04T11:31:40.079Z,62.10
2019-01-04T11:35:08.422Z,62.20
2019-01-04T11:38:30.483Z,62.30
2019-01-04T11:41:36.026Z,62.30
2019-01-04T11:44:16.886Z,62.30
2019-01-04T11:47:14.223Z,62.30
2019-01-04T11:50:26.975Z,62.40
2019-01-04T11:53:00.927Z,62.50
2019-01-04T11:55:29.790Z,62.80
2019-01-04T11:57:59.089Z,62.80
2019-01-04T12:00:28.125Z,62.80
2019-01-04T12:02:56.970Z,62.70
2019-01-04T12:05:25.880Z,62.80
2019-01-04T12:07:54.919Z,62.80
2019-01-04T12:10:23.832Z,62.60
2019-01-04T12:12:52.741Z,62.40
2019-01-04T12:15:24.789Z,62.40
2019-01-04T12:17:53.853Z,62.50
2019-01-04T12:20:22.837Z,62.50
2019-01-04T12:22:54.078Z,62.50
2019-01-04T12:25:23.158Z,62.30
2019-01-04T12:27:57.518Z,62.20
2019-01-04T12:30:26.426Z,62.20
2019-01-04T12:32:55.273Z,62.30
2019-01-04T12:35:24.802Z,62.10
2019-01-04T12:37:54.361Z,62.10
2019-01-04T12:40:23.208Z,62.10
2019-01-04T12:42:52.154Z,62.10
2019-01-04T12:45:21.070Z,62.00
2019-01-04T12:47:50.157Z,62.00
2019-01-04T12:50:19.069Z,62.10
2019-01-04T12:52:47.914Z,62.00
2019-01-04T12:55:17.095Z,62.00
2019-01-04T12:57:46.369Z,61.70
2019-01-04T13:00:15.488Z,61.60
2019-01-04T13:02:44.323Z,62.10
2019-01-04T13:05:13.271Z,61.40
2019-01-04T13:07:42.420Z,61.00
2019-01-04T13:10:11.357Z,60.50
2019-01-04T13:12:40.301Z,60.10
2019-01-04T13:15:09.282Z,59.80
2019-01-04T13:17:38.096Z,59.40
2019-01-04T13:20:07.262Z,59.20
2019-01-04T13:22:36.226Z,59.00
2019-01-04T13:25:05.303Z,58.70
2019-01-04T13:27:34.308Z,58.40
2019-01-04T13:30:03.337Z,58.20
2019-01-04T13:32:32.183Z,58.20
2019-01-04T13:35:01.044Z,58.10
2019-01-04T13:37:29.942Z,58.10
2019-01-04T13:39:58.861Z,58.10
2019-01-04T13:42:27.726Z,58.10
2019-01-04T13:44:56.702Z,58.00
2019-01-04T13:47:32.061Z,58.30
2019-01-04T13:49:56.248Z,58.30
2019-01-04T13:52:25.122Z,58.30
2019-01-04T13:54:54.053Z,58.40
2019-01-04T13:57:23.013Z,58.20
2019-01-04T13:59:51.959Z,57.80
2019-01-04T14:02:20.784Z,57.80
2019-01-04T14:04:49.713Z,57.80
2019-01-04T14:07:18.750Z,57.90
2019-01-04T14:09:47.628Z,57.90
2019-01-04T14:12:16.560Z,57.90
2019-01-04T14:14:45.478Z,57.80
2019-01-04T14:17:14.458Z,57.80
2019-01-04T14:19:43.368Z,57.60
2019-01-04T14:22:12.251Z,57.70
2019-01-04T14:24:41.080Z,57.70
2019-01-04T14:27:10.422Z,57.90
2019-01-04T14:29:39.315Z,57.90
2019-01-04T14:32:08.245Z,58.40
2019-01-04T14:34:37.114Z,58.00
2019-01-04T14:37:06.098Z,58.30
2019-01-04T14:39:34.925Z,58.40
2019-01-04T14:42:03.934Z,58.80
2019-01-04T14:44:32.766Z,59.10
2019-01-04T14:47:03.004Z,59.40
2019-01-04T14:49:32.052Z,59.70
2019-01-04T14:52:00.913Z,59.90
2019-01-04T14:54:29.781Z,60.10
2019-01-04T14:56:58.730Z,60.50
2019-01-04T14:59:28.856Z,60.80
2019-01-04T15:01:57.788Z,61.00
2019-01-04T15:04:26.902Z,61.20
2019-01-04T15:06:55.874Z,61.40
2019-01-04T15:09:25.841Z,61.60
2019-01-04T15:11:54.801Z,61.70
2019-01-04T15:14:23.709Z,61.90
2019-01-04T15:16:52.627Z,62.10
2019-01-04T15:19:22.050Z,62.70
2019-01-04T15:21:51.006Z,62.00
2019-01-04T15:24:19.936Z,62.10
2019-01-04T15:26:48.878Z,62.20
2019-01-04T15:29:17.789Z,62.20
2019-01-04T15:31:46.633Z,62.20
2019-01-04T15:34:15.665Z,62.20
2019-01-04T15:36:44.515Z,62.30
2019-01-04T15:39:13.494Z,62.30
2019-01-04T15:41:42.462Z,62.40
2019-01-04T15:44:11.331Z,62.50
2019-01-04T15:46:44.392Z,62.60
2019-01-04T15:49:13.317Z,62.60
2019-01-04T15:51:42.213Z,62.70
2019-01-04T15:54:11.186Z,62.90
2019-01-04T15:56:40.283Z,63.00
2019-01-04T15:59:09.293Z,63.00
2019-01-04T16:01:38.330Z,63.10
2019-01-04T16:04:07.246Z,63.30
2019-01-04T16:06:36.418Z,63.40
2019-01-04T16:09:07.349Z,63.50
2019-01-04T16:11:37.138Z,63.60
2019-01-04T16:14:06.146Z,63.70
2019-01-04T16:16:35.163Z,63.70
2019-01-04T16:19:04.371Z,63.60
2019-01-04T16:21:33.219Z,63.90
2019-01-04T16:24:02.290Z,63.80
2019-01-04T16:26:31.477Z,63.80
2019-01-04T16:29:00.306Z,63.90
2019-01-04T16:31:29.266Z,64.20
2019-01-04T16:33:58.113Z,64.00
2019-01-04T16:36:27.171Z,64.00
2019-01-04T16:38:56.047Z,64.00
2019-01-04T16:41:24.997Z,64.20
2019-01-04T16:43:53.868Z,64.30
2019-01-04T16:46:23.311Z,64.50
2019-01-04T16:48:52.191Z,64.70
2019-01-04T16:51:21.285Z,64.80
2019-01-04T16:53:50.161Z,64.80
2019-01-04T16:56:19.403Z,65.00
2019-01-04T16:58:48.401Z,65.10
2019-01-04T17:01:17.301Z,65.20
2019-01-04T17:03:46.319Z,65.50
2019-01-04T17:06:15.322Z,65.50
2019-01-04T17:08:44.388Z,65.60
2019-01-04T17:11:13.455Z,65.70
2019-01-04T17:13:42.473Z,65.90
2019-01-04T17:16:11.642Z,66.00
2019-01-04T17:18:40.609Z,66.80
2019-01-04T17:21:09.526Z,66.40
2019-01-04T17:23:38.871Z,66.40
2019-01-04T17:26:08.139Z,66.40
2019-01-04T17:28:36.989Z,66.60
2019-01-04T17:31:06.415Z,66.80
2019-01-04T17:33:35.489Z,67.00
2019-01-04T17:36:04.731Z,67.20
2019-01-04T17:38:33.695Z,67.30
2019-01-04T17:41:03.313Z,67.40
2019-01-04T17:43:33.900Z,67.40
2019-01-04T17:46:04.348Z,67.50
2019-01-04T17:48:35.271Z,67.60
2019-01-04T17:51:04.249Z,67.60
2019-01-04T17:53:33.091Z,67.60
2019-01-04T17:56:03.294Z,67.60
2019-01-04T17:58:32.880Z,67.80
2019-01-04T18:01:01.842Z,67.90
2019-01-04T18:03:30.741Z,68.00
2019-01-04T18:06:00.844Z,68.00
2019-01-04T18:08:30.113Z,68.20
2019-01-04T18:10:59.132Z,68.30
2019-01-04T18:13:28.001Z,68.20
2019-01-04T18:15:57.014Z,68.30
2019-01-04T18:18:26.116Z,68.30
2019-01-04T18:20:55.046Z,68.20
2019-01-04T18:23:23.964Z,68.20
2019-01-04T18:25:52.889Z,68.20
2019-01-04T18:28:21.812Z,68.00
2019-01-04T18:30:50.673Z,67.90
2019-01-04T18:33:19.672Z,67.80
2019-01-04T18:35:48.586Z,67.80
2019-01-04T18:38:17.474Z,67.70
2019-01-04T18:40:46.946Z,67.60
2019-01-04T18:43:16.050Z,67.50
2019-01-04T18:45:44.928Z,67.40
2019-01-04T18:48:13.935Z,67.40
2019-01-04T18:50:42.878Z,67.30
2019-01-04T18:53:12.028Z,67.40
2019-01-04T18:55:40.998Z,67.30
2019-01-04T18:58:10.493Z,67.90
2019-01-04T19:00:39.431Z,67.20
2019-01-04T19:03:08.417Z,67.10
2019-01-04T19:05:37.316Z,67.00
2019-01-04T19:08:06.398Z,67.10
2019-01-04T19:10:35.270Z,67.00
2019-01-04T19:13:04.242Z,66.90
2019-01-04T19:15:33.222Z,66.80
2019-01-04T19:18:02.108Z,66.90
2019-01-04T19:20:31.289Z,66.80
2019-01-04T19:23:00.456Z,66.80
2019-01-04T19:25:29.303Z,66.70
2019-01-04T19:27:58.203Z,66.50
2019-01-04T19:30:27.132Z,66.50
2019-01-04T19:32:56.050Z,66.40
2019-01-04T19:35:24.873Z,66.50
2019-01-04T19:37:53.768Z,66.40
2019-01-04T19:40:22.638Z,66.40
2019-01-04T19:42:51.578Z,66.40
2019-01-04T19:45:20.410Z,66.30
2019-01-04T19:47:49.298Z,66.30
2019-01-04T19:50:20.481Z,66.10
2019-01-04T19:52:49.468Z,66.10
2019-01-04T19:55:19.132Z,66.00
2019-01-04T19:57:48.147Z,66.00
2019-01-04T20:00:17.248Z,65.90
2019-01-04T20:02:46.209Z,65.90
2019-01-04T20:05:15.226Z,65.90
2019-01-04T20:08:17.925Z,65.90
2019-01-04T20:11:48.901Z,66.00
2019-01-04T20:15:28.119Z,66.00
2019-01-04T20:18:16.221Z,65.90
2019-01-04T20:21:17.341Z,65.90
2019-01-04T20:24:03.977Z,66.00
2019-01-04T20:26:50.794Z,66.00
2019-01-04T20:29:41.867Z,66.10
2019-01-04T20:32:35.814Z,66.00
2019-01-04T20:35:28.829Z,66.10
2019-01-04T20:38:39.381Z,66.10
2019-01-04T20:41:52.416Z,66.10
2019-01-04T20:44:39.441Z,66.00
2019-01-04T20:47:40.925Z,66.00
2019-01-04T20:50:27.930Z,66.00
2019-01-04T20:53:15.713Z,66.00
2019-01-04T20:56:06.229Z,66.10
2019-01-04T20:58:57.735Z,66.20
2019-01-04T21:01:54.086Z,66.30
2019-01-04T21:04:44.719Z,66.40
2019-01-04T21:07:32.177Z,66.60
2019-01-04T21:10:31.203Z,66.60
2019-01-04T21:13:17.141Z,66.70
2019-01-04T21:16:04.768Z,66.80
2019-01-04T21:18:56.124Z,67.00
2019-01-04T21:21:42.885Z,67.10
2019-01-04T21:24:43.121Z,67.20
2019-01-04T21:27:40.047Z,67.20
2019-01-04T21:30:26.804Z,67.20
2019-01-04T21:33:23.066Z,67.20
2019-01-04T21:36:13.190Z,67.30
2019-01-04T21:39:03.216Z,67.30
2019-01-04T21:41:53.342Z,68.00
2019-01-04T21:44:40.765Z,67.50
2019-01-04T21:47:49.489Z,67.50
2019-01-04T21:50:39.393Z,67.60
2019-01-04T21:53:26.697Z,67.60
2019-01-04T21:56:32.809Z,67.60
2019-01-04T21:59:29.001Z,67.70
2019-01-04T22:02:27.027Z,67.80
2019-01-04T22:05:14.387Z,67.80
2019-01-04T22:08:02.195Z,67.90
2019-01-04T22:10:53.369Z,68.00
2019-01-04T22:13:35.396Z,68.00
2019-01-04T22:16:23.374Z,68.00
2019-01-04T22:19:10.186Z,68.00
2019-01-04T22:22:12.482Z,68.00
2019-01-04T22:25:00.157Z,68.00
2019-01-04T22:27:58.485Z,68.10
2019-01-04T22:30:40.066Z,68.30
2019-01-04T22:33:26.830Z,68.30
2019-01-04T22:36:16.329Z,68.30
2019-01-04T22:39:02.676Z,68.30
2019-01-04T22:41:49.555Z,68.40
2019-01-04T22:44:43.576Z,68.50
2019-01-04T22:47:43.811Z,68.50
2019-01-04T22:50:31.841Z,68.60
2019-01-04T22:53:37.861Z,68.60
2019-01-04T22:56:44.249Z,68.70
2019-01-04T22:59:47.097Z,68.80
2019-01-04T23:02:33.915Z,68.80
2019-01-04T23:05:20.891Z,68.80
2019-01-04T23:08:07.945Z,68.80
2019-01-04T23:10:54.687Z,68.80
2019-01-04T23:13:42.117Z,68.80
2019-01-04T23:16:42.157Z,68.80
2019-01-04T23:19:28.905Z,68.80
2019-01-04T23:22:18.313Z,68.80
2019-01-04T23:25:06.289Z,68.80
2019-01-04T23:27:51.692Z,68.70
2019-01-04T23:30:35.272Z,69.30
2019-01-04T23:33:23.250Z,68.70
2019-01-04T23:36:23.357Z,68.80
2019-01-04T23:39:14.262Z,68.80
2019-01-04T23:42:02.254Z,68.80
2019-01-04T23:44:50.265Z,68.80
2019-01-04T23:47:35.593Z,68.80
2019-01-04T23:50:18.470Z,68.90
2019-01-04T23:53:07.237Z,68.80
2019-01-04T23:55:55.876Z,68.80
2019-01-04T23:58:46.716Z,68.90
